CheckWX is a tool to help pilots better visualize weather data.  It is not intended as a substitute for an official pre-flight weather briefing.

07:29:48 UTC

EVLA METAR
Liepāja International Airport
Liepāja, Latvia
Current

40 mins ago

EVLA 210650Z AUTO 10006KT 060V120 9999 FEW130/// 23/16 Q1008
Observed
May-21 @ 06:50 UTC
Wind
  • 100° at 6 KTS
Visibility
10,000+ meters
Flight Rules
VFR
Cloud Levels
  • Few at 13,000' AGL
Temperature
23°C / 73°F
Dewpoint
16°C / 61°F
Humidity
65%
Altimeter
29.76" Hg
Pressure
1007.92 hPa
Previous

1 hour ago

EVLA 210620Z AUTO 08005KT 060V120 9999 SCT120/// SCT160/// 21/15 Q1008
Observed
May-21 @ 06:20 UTC
Wind
  • 080° at 5 KTS
Visibility
10,000+ meters
Flight Rules
VFR
Cloud Levels
  • Scattered at 12,000' AGL
  • Scattered at 16,000' AGL
Temperature
21°C / 70°F
Dewpoint
15°C / 59°F
Humidity
69%
Altimeter
29.76" Hg
Pressure
1007.92 hPa
Previous

2 hours ago

EVLA 210550Z AUTO 10006KT 9999 SCT160/// 20/14 Q1008
Observed
May-21 @ 05:50 UTC
Wind
  • 100° at 6 KTS
Visibility
10,000+ meters
Flight Rules
VFR
Cloud Levels
  • Scattered at 16,000' AGL
Temperature
20°C / 68°F
Dewpoint
14°C / 57°F
Humidity
69%
Altimeter
29.76" Hg
Pressure
1007.92 hPa